createdAt,value
2022-08-12T00:01:02.712Z,30.10
2022-08-12T00:03:49.910Z,30.10
2022-08-12T00:06:38.272Z,30.10
2022-08-12T00:09:26.531Z,30.10
2022-08-12T00:12:13.142Z,30.10
2022-08-12T00:15:02.695Z,30.10
2022-08-12T00:17:49.351Z,30.10
2022-08-12T00:20:35.143Z,30.10
2022-08-12T00:23:21.441Z,30.10
2022-08-12T00:26:22.447Z,30.10
2022-08-12T00:29:12.038Z,30.10
2022-08-12T00:31:58.502Z,30.10
2022-08-12T00:34:47.802Z,30.10
2022-08-12T00:37:36.505Z,30.00
2022-08-12T00:40:24.851Z,30.00
2022-08-12T00:42:53.484Z,30.00
2022-08-12T00:45:21.291Z,30.00
2022-08-12T00:47:51.546Z,30.00
2022-08-12T00:50:21.346Z,29.90
2022-08-12T00:52:51.816Z,29.90
2022-08-12T00:55:20.462Z,29.90
2022-08-12T00:57:50.458Z,29.90
2022-08-12T01:00:24.449Z,29.90
2022-08-12T01:02:57.617Z,29.80
2022-08-12T01:05:44.689Z,29.80
2022-08-12T01:08:31.530Z,29.80
2022-08-12T01:11:17.564Z,29.80
2022-08-12T01:13:52.535Z,29.70
2022-08-12T01:16:24.179Z,29.70
2022-08-12T01:18:53.860Z,29.70
2022-08-12T01:21:26.915Z,29.70
2022-08-12T01:24:31.308Z,29.70
2022-08-12T01:27:02.221Z,29.70
2022-08-12T01:29:33.561Z,29.70
2022-08-12T01:32:09.084Z,29.70
2022-08-12T01:34:38.459Z,29.60
2022-08-12T01:37:09.896Z,29.60
2022-08-12T01:40:35.696Z,29.60
2022-08-12T01:42:47.441Z,29.60
2022-08-12T01:45:17.499Z,29.60
2022-08-12T01:48:05.369Z,29.60
2022-08-12T01:50:46.159Z,29.60
2022-08-12T01:53:16.032Z,29.50
2022-08-12T01:55:46.834Z,29.50
2022-08-12T01:58:26.980Z,29.50
2022-08-12T02:01:04.609Z,29.50
2022-08-12T02:04:03.530Z,29.40
2022-08-12T02:06:55.127Z,29.40
2022-08-12T02:09:52.245Z,29.30
2022-08-12T02:12:33.160Z,29.40
2022-08-12T02:15:13.014Z,29.30
2022-08-12T02:18:03.387Z,29.20
2022-08-12T02:20:51.661Z,29.20
2022-08-12T02:23:26.736Z,29.20
2022-08-12T02:25:59.466Z,29.20
2022-08-12T02:28:27.927Z,29.20
2022-08-12T02:30:56.933Z,29.20
2022-08-12T02:33:25.410Z,29.20
2022-08-12T02:35:53.454Z,29.10
2022-08-12T02:38:21.720Z,29.10
2022-08-12T02:40:54.805Z,29.10
2022-08-12T02:43:41.581Z,29.10
2022-08-12T02:46:14.927Z,29.10
2022-08-12T02:49:00.852Z,29.10
2022-08-12T02:51:34.323Z,29.10
2022-08-12T02:54:05.903Z,29.00
2022-08-12T02:56:47.181Z,29.00
2022-08-12T02:59:22.415Z,29.00
2022-08-12T03:01:55.974Z,29.00
2022-08-12T03:04:26.626Z,29.00
2022-08-12T03:07:14.803Z,29.00
2022-08-12T03:10:04.511Z,29.00
2022-08-12T03:12:42.824Z,29.00
2022-08-12T03:15:18.860Z,28.90
2022-08-12T03:18:24.191Z,28.90
2022-08-12T03:20:57.222Z,28.90
2022-08-12T03:23:28.925Z,28.90
2022-08-12T03:26:01.962Z,28.90
2022-08-12T03:28:50.705Z,28.90
2022-08-12T03:31:24.657Z,28.80
2022-08-12T03:34:02.166Z,28.80
2022-08-12T03:36:36.751Z,28.80
2022-08-12T03:39:35.651Z,28.80
2022-08-12T03:42:17.320Z,28.80
2022-08-12T03:45:13.480Z,28.80
2022-08-12T03:48:18.895Z,28.70
2022-08-12T03:51:06.338Z,28.70
2022-08-12T03:53:52.908Z,28.70
2022-08-12T03:56:38.479Z,28.60
2022-08-12T03:59:24.475Z,28.70
2022-08-12T04:01:57.549Z,28.60
2022-08-12T04:04:35.391Z,28.60
2022-08-12T04:07:07.763Z,28.60
2022-08-12T04:09:41.987Z,28.60
2022-08-12T04:12:29.912Z,28.60
2022-08-12T04:15:00.636Z,28.60
2022-08-12T04:17:28.565Z,28.50
2022-08-12T04:19:57.783Z,28.50
2022-08-12T04:22:30.705Z,28.50
2022-08-12T04:25:01.237Z,28.50
2022-08-12T04:27:32.682Z,28.50
2022-08-12T04:30:32.913Z,28.40
2022-08-12T04:32:53.962Z,28.50
2022-08-12T04:35:21.439Z,28.40
2022-08-12T04:37:59.159Z,28.40
2022-08-12T04:40:31.900Z,28.40
2022-08-12T04:43:01.857Z,28.40
2022-08-12T04:45:30.394Z,28.40
2022-08-12T04:47:57.463Z,28.40
2022-08-12T04:50:33.719Z,28.40
2022-08-12T04:53:06.011Z,28.40
2022-08-12T04:55:34.560Z,28.40
2022-08-12T04:58:01.639Z,28.40
2022-08-12T05:00:28.792Z,28.40
2022-08-12T05:02:56.048Z,28.40
2022-08-12T05:05:24.056Z,28.30
2022-08-12T05:07:55.023Z,28.30
2022-08-12T05:10:33.127Z,28.30
2022-08-12T05:13:07.248Z,28.30
2022-08-12T05:15:37.770Z,28.30
2022-08-12T05:18:24.869Z,28.30
2022-08-12T05:20:52.052Z,28.30
2022-08-12T05:23:24.099Z,28.30
2022-08-12T05:25:56.338Z,28.30
2022-08-12T05:28:27.056Z,28.30
2022-08-12T05:30:55.168Z,28.30
2022-08-12T05:33:26.537Z,28.30
2022-08-12T05:35:53.650Z,28.30
2022-08-12T05:38:39.229Z,28.30
2022-08-12T05:41:06.867Z,28.30
2022-08-12T05:43:36.064Z,28.30
2022-08-12T05:46:03.169Z,28.30
2022-08-12T05:48:30.986Z,28.30
2022-08-12T05:50:58.023Z,28.30
2022-08-12T05:53:25.021Z,28.30
2022-08-12T05:55:53.484Z,28.30
2022-08-12T05:58:21.250Z,28.40
2022-08-12T06:00:48.483Z,28.30
2022-08-12T06:03:17.619Z,28.30
2022-08-12T06:05:55.114Z,28.30
2022-08-12T06:08:24.414Z,28.40
2022-08-12T06:10:54.968Z,28.40
2022-08-12T06:13:28.442Z,28.40
2022-08-12T06:16:10.950Z,28.40
2022-08-12T06:18:40.085Z,28.40
2022-08-12T06:21:08.323Z,28.40
2022-08-12T06:23:41.864Z,28.40
2022-08-12T06:26:12.688Z,28.40
2022-08-12T06:28:40.778Z,28.40
2022-08-12T06:31:25.226Z,28.40
2022-08-12T06:34:00.895Z,28.40
2022-08-12T06:36:42.844Z,28.50
2022-08-12T06:39:14.365Z,28.50
2022-08-12T06:42:30.831Z,28.50
2022-08-12T06:44:50.329Z,28.50
2022-08-12T06:47:19.706Z,28.50
2022-08-12T06:49:49.481Z,28.50
2022-08-12T06:52:17.314Z,28.50
2022-08-12T06:54:45.912Z,28.50
2022-08-12T06:58:06.221Z,28.50
2022-08-12T06:59:59.845Z,28.50
2022-08-12T07:02:27.370Z,28.60
2022-08-12T07:04:54.337Z,28.60
2022-08-12T07:07:21.479Z,28.60
2022-08-12T07:10:05.469Z,28.60
2022-08-12T07:12:35.385Z,28.60
2022-08-12T07:15:02.727Z,28.70
2022-08-12T07:17:35.793Z,28.70
2022-08-12T07:20:29.859Z,28.70
2022-08-12T07:22:58.265Z,28.70
2022-08-12T07:25:31.002Z,28.70
2022-08-12T07:28:16.231Z,28.80
2022-08-12T07:30:45.423Z,28.80
2022-08-12T07:33:15.762Z,28.80
2022-08-12T07:35:47.870Z,28.80
2022-08-12T07:38:29.443Z,28.80
2022-08-12T07:41:18.619Z,28.80
2022-08-12T07:43:49.997Z,28.80
2022-08-12T07:46:20.486Z,28.80
2022-08-12T07:48:50.926Z,28.80
2022-08-12T07:51:25.198Z,28.90
2022-08-12T07:54:00.245Z,28.90
2022-08-12T07:56:29.221Z,28.90
2022-08-12T07:58:59.583Z,28.90
2022-08-12T08:01:28.149Z,29.00
2022-08-12T08:04:18.723Z,29.00
2022-08-12T08:06:47.315Z,29.00
2022-08-12T08:09:16.461Z,29.10
2022-08-12T08:12:02.225Z,29.10
2022-08-12T08:14:29.498Z,29.10
2022-08-12T08:16:58.511Z,29.20
2022-08-12T08:19:28.956Z,29.20
2022-08-12T08:21:57.465Z,29.20
2022-08-12T08:24:28.070Z,29.30
2022-08-12T08:26:56.761Z,29.20
2022-08-12T08:29:24.476Z,29.20
2022-08-12T08:31:54.393Z,29.30
2022-08-12T08:34:40.158Z,29.30
2022-08-12T08:37:10.553Z,29.30
2022-08-12T08:39:42.279Z,29.30
2022-08-12T08:42:28.009Z,29.30
2022-08-12T08:44:58.046Z,29.30
2022-08-12T08:47:25.842Z,29.30
2022-08-12T08:49:53.031Z,29.30
2022-08-12T08:52:38.842Z,29.30
2022-08-12T08:55:08.165Z,29.30
2022-08-12T08:57:44.123Z,29.30
2022-08-12T09:00:16.962Z,29.30
2022-08-12T09:02:49.097Z,29.40
2022-08-12T09:05:25.766Z,29.30
2022-08-12T09:08:11.981Z,29.40
2022-08-12T09:16:21.158Z,29.40
2022-08-12T09:18:52.177Z,29.40
2022-08-12T09:21:23.050Z,29.40
2022-08-12T09:23:59.871Z,29.40
2022-08-12T09:26:29.734Z,29.50
2022-08-12T09:28:58.036Z,29.50
2022-08-12T09:32:02.708Z,29.50
2022-08-12T09:34:25.168Z,29.50
2022-08-12T09:36:58.565Z,29.50
2022-08-12T09:40:00.948Z,29.50
2022-08-12T09:42:43.598Z,29.60
2022-08-12T09:46:06.718Z,29.50
2022-08-12T09:48:19.853Z,29.50
2022-08-12T09:50:52.152Z,29.50
2022-08-12T09:53:35.825Z,29.50
2022-08-12T09:56:41.037Z,29.50
2022-08-12T09:59:00.225Z,29.50
2022-08-12T10:01:34.474Z,29.50
2022-08-12T10:04:04.958Z,29.50
2022-08-12T10:06:36.026Z,29.50
2022-08-12T10:09:08.347Z,29.50
2022-08-12T10:12:10.072Z,29.50
2022-08-12T10:14:40.699Z,29.60
2022-08-12T10:17:22.545Z,29.50
2022-08-12T10:19:52.587Z,29.60
2022-08-12T10:22:39.436Z,29.60
2022-08-12T10:26:34.134Z,29.60
2022-08-12T10:28:32.963Z,29.60
2022-08-12T10:31:01.457Z,29.60
2022-08-12T10:33:33.403Z,29.60
2022-08-12T10:36:02.125Z,29.60
2022-08-12T10:38:35.506Z,29.70
2022-08-12T10:41:58.236Z,29.70
2022-08-12T10:44:16.754Z,29.70
2022-08-12T10:46:49.508Z,29.70
2022-08-12T10:50:02.634Z,29.70
2022-08-12T10:52:34.496Z,29.70
2022-08-12T10:54:55.790Z,29.70
2022-08-12T10:58:12.659Z,29.80
2022-08-12T11:00:33.866Z,29.80
2022-08-12T11:04:24.945Z,29.80
2022-08-12T11:07:08.080Z,29.80
2022-08-12T11:08:43.326Z,29.80
2022-08-12T11:12:35.905Z,29.80
2022-08-12T11:14:05.939Z,29.90
2022-08-12T11:16:33.285Z,29.90
2022-08-12T11:19:02.581Z,29.90
2022-08-12T11:21:56.397Z,29.90
2022-08-12T11:24:31.829Z,29.90
2022-08-12T11:27:08.087Z,30.00
2022-08-12T11:30:06.518Z,30.00
2022-08-12T11:32:25.663Z,30.00
2022-08-12T11:34:54.875Z,30.10
2022-08-12T11:37:25.732Z,30.00
2022-08-12T11:42:37.325Z,30.10
2022-08-12T11:45:10.365Z,30.10
2022-08-12T11:47:40.383Z,30.10
2022-08-12T11:50:08.086Z,30.10
2022-08-12T11:52:56.360Z,30.20
2022-08-12T11:55:25.228Z,30.20
2022-08-12T11:58:19.670Z,30.20
2022-08-12T12:03:40.418Z,30.20
2022-08-12T12:06:17.958Z,30.20
2022-08-12T12:08:50.844Z,30.30
2022-08-12T12:11:18.862Z,30.30
2022-08-12T12:14:08.918Z,30.30
2022-08-12T12:16:33.312Z,30.30
2022-08-12T12:19:10.106Z,30.30
2022-08-12T12:21:48.764Z,30.30
2022-08-12T12:24:22.105Z,30.30
2022-08-12T12:27:00.527Z,30.30
2022-08-12T12:30:13.362Z,30.30
2022-08-12T12:32:19.387Z,30.30
2022-08-12T12:35:18.458Z,30.30
2022-08-12T12:38:12.157Z,30.40
2022-08-12T12:40:41.759Z,30.40
2022-08-12T12:43:12.462Z,30.40
2022-08-12T12:45:44.539Z,30.40
2022-08-12T12:48:15.444Z,30.40
2022-08-12T12:50:51.494Z,30.40
2022-08-12T12:54:06.251Z,30.50
2022-08-12T12:56:20.983Z,30.60
2022-08-12T12:59:02.615Z,30.60
2022-08-12T13:01:30.972Z,30.70
2022-08-12T13:04:02.701Z,30.60
2022-08-12T13:06:31.769Z,30.70
2022-08-12T13:09:03.309Z,30.70
2022-08-12T13:11:32.756Z,30.70
2022-08-12T13:14:27.628Z,30.70
2022-08-12T13:17:03.620Z,30.70
2022-08-12T13:19:42.281Z,30.70
2022-08-12T13:22:21.693Z,30.70
2022-08-12T13:24:56.029Z,30.70
2022-08-12T13:27:48.365Z,30.80
2022-08-12T13:30:18.847Z,30.80
2022-08-12T13:32:57.734Z,30.80
2022-08-12T13:36:05.068Z,30.90
2022-08-12T13:38:38.947Z,30.90
2022-08-12T13:41:10.948Z,30.90
2022-08-12T13:43:40.932Z,30.90
2022-08-12T13:46:12.166Z,30.90
2022-08-12T13:48:44.928Z,31.00
2022-08-12T13:51:24.058Z,31.00
2022-08-12T13:53:59.411Z,31.00
2022-08-12T13:56:35.570Z,31.10
2022-08-12T13:59:05.574Z,31.10
2022-08-12T14:01:35.777Z,31.20
2022-08-12T14:04:11.652Z,31.20
2022-08-12T14:06:43.486Z,31.30
2022-08-12T14:09:17.334Z,31.30
2022-08-12T14:11:58.570Z,31.30
2022-08-12T14:14:27.501Z,31.40
2022-08-12T14:17:02.128Z,31.40
2022-08-12T14:19:37.944Z,31.40
2022-08-12T14:22:10.353Z,31.50
2022-08-12T14:24:40.373Z,31.50
2022-08-12T14:27:10.385Z,31.50
2022-08-12T14:30:04.292Z,31.60
2022-08-12T14:32:35.327Z,31.60
2022-08-12T14:35:09.921Z,31.70
2022-08-12T14:37:55.419Z,31.70
2022-08-12T14:40:30.320Z,31.70
2022-08-12T14:43:00.409Z,31.70
2022-08-12T14:45:45.091Z,31.80
2022-08-12T14:48:18.600Z,31.80
2022-08-12T14:52:07.862Z,31.90
2022-08-12T14:59:56.843Z,31.90
2022-08-12T15:02:21.734Z,32.00
2022-08-12T15:05:03.568Z,32.00
2022-08-12T15:07:34.290Z,32.10
2022-08-12T15:10:31.099Z,32.10
2022-08-12T15:12:59.360Z,32.10
2022-08-12T15:15:26.321Z,32.10
2022-08-12T15:18:02.533Z,32.20
2022-08-12T15:20:37.442Z,32.30
2022-08-12T15:23:17.759Z,32.30
2022-08-12T15:25:49.530Z,32.30
2022-08-12T15:28:32.618Z,32.30
2022-08-12T15:31:00.769Z,32.40
2022-08-12T15:33:45.017Z,32.40
2022-08-12T15:36:19.407Z,32.40
2022-08-12T15:39:03.011Z,32.40
2022-08-12T15:41:30.789Z,32.50
2022-08-12T15:44:38.460Z,32.50
2022-08-12T15:47:05.164Z,32.50
2022-08-12T15:49:43.101Z,32.50
2022-08-12T15:52:27.608Z,32.60
2022-08-12T15:54:58.429Z,32.60
2022-08-12T15:57:27.262Z,32.60
2022-08-12T16:00:07.068Z,32.60
2022-08-12T16:02:50.066Z,32.70
2022-08-12T16:06:13.249Z,32.70
2022-08-12T16:08:15.273Z,32.70
2022-08-12T16:10:45.641Z,32.80
2022-08-12T16:13:16.208Z,32.80
2022-08-12T16:15:51.143Z,32.80
2022-08-12T16:18:35.609Z,32.80
2022-08-12T16:21:10.366Z,32.80
2022-08-12T16:23:57.937Z,32.80
2022-08-12T16:26:32.198Z,32.80
2022-08-12T16:29:14.759Z,32.80
2022-08-12T16:31:43.471Z,32.80
2022-08-12T16:34:40.015Z,32.80
2022-08-12T16:37:08.756Z,32.80
2022-08-12T16:40:01.382Z,32.90
2022-08-12T16:42:28.114Z,32.90
2022-08-12T16:45:01.891Z,33.00
2022-08-12T16:47:57.589Z,33.00
2022-08-12T16:50:19.456Z,33.00
2022-08-12T16:52:50.269Z,33.10
2022-08-12T16:55:18.815Z,33.10
2022-08-12T16:57:48.601Z,33.30
2022-08-12T17:00:18.425Z,33.50
2022-08-12T17:02:57.168Z,33.50
2022-08-12T17:05:31.409Z,33.60
2022-08-12T17:08:00.456Z,33.70
2022-08-12T17:10:36.270Z,33.60
2022-08-12T17:13:10.289Z,33.50
2022-08-12T17:16:05.890Z,33.30
2022-08-12T17:18:43.979Z,33.10
2022-08-12T17:21:19.749Z,32.90
2022-08-12T17:23:53.133Z,32.70
2022-08-12T17:26:28.368Z,32.60
2022-08-12T17:28:59.781Z,32.50
2022-08-12T17:32:00.805Z,32.40
2022-08-12T17:34:38.407Z,32.40
2022-08-12T17:37:06.306Z,32.30
2022-08-12T17:40:06.548Z,32.20
2022-08-12T17:42:34.249Z,32.20
2022-08-12T17:45:17.942Z,32.10
2022-08-12T17:48:00.952Z,32.10
2022-08-12T17:50:32.271Z,32.00
2022-08-12T17:53:03.122Z,31.90
2022-08-12T17:55:40.203Z,31.90
2022-08-12T17:58:14.402Z,31.80
2022-08-12T18:00:45.985Z,31.70
2022-08-12T18:04:04.557Z,31.70
2022-08-12T18:06:08.675Z,31.70
2022-08-12T18:08:53.526Z,31.60
2022-08-12T18:12:05.726Z,31.60
2022-08-12T18:14:30.582Z,31.50
2022-08-12T18:17:01.754Z,31.50
2022-08-12T18:20:03.862Z,31.40
2022-08-12T18:22:22.145Z,31.40
2022-08-12T18:25:06.792Z,31.30
2022-08-12T18:27:47.002Z,31.30
2022-08-12T18:30:29.413Z,31.30
2022-08-12T18:33:03.807Z,31.20
2022-08-12T18:35:47.169Z,31.20
2022-08-12T18:38:24.537Z,31.20
2022-08-12T18:41:20.873Z,31.10
2022-08-12T18:43:59.011Z,31.10
2022-08-12T18:46:46.790Z,31.10
2022-08-12T18:49:24.824Z,31.00
2022-08-12T18:52:02.316Z,30.90
2022-08-12T18:54:35.206Z,30.90
2022-08-12T18:57:19.926Z,30.80
2022-08-12T19:00:00.816Z,30.70
2022-08-12T19:02:33.916Z,30.70
2022-08-12T19:05:09.813Z,30.60
2022-08-12T19:07:49.755Z,30.60
2022-08-12T19:10:30.782Z,30.50
2022-08-12T19:13:24.008Z,30.50
2022-08-12T19:15:54.487Z,30.40
2022-08-12T19:18:26.129Z,30.40
2022-08-12T19:20:58.816Z,30.40
2022-08-12T19:23:34.983Z,30.40
2022-08-12T19:26:03.719Z,30.30
2022-08-12T19:28:34.529Z,30.30
2022-08-12T19:31:44.636Z,30.30
2022-08-12T19:34:56.333Z,30.30
2022-08-12T19:37:27.040Z,30.30
2022-08-12T19:40:09.471Z,30.20
2022-08-12T19:42:57.433Z,30.10
2022-08-12T19:45:43.829Z,30.10
2022-08-12T19:48:17.031Z,30.10
2022-08-12T19:50:49.983Z,30.00
2022-08-12T19:53:23.947Z,30.00
2022-08-12T19:55:53.341Z,29.90
2022-08-12T19:58:23.742Z,29.90
2022-08-12T20:00:55.813Z,29.90
2022-08-12T20:03:38.879Z,29.80
2022-08-12T20:06:13.811Z,29.70
2022-08-12T20:08:48.694Z,29.70
2022-08-12T20:12:12.454Z,29.70
2022-08-12T20:14:08.545Z,29.60
2022-08-12T20:16:57.227Z,29.60
2022-08-12T20:19:52.188Z,29.60
2022-08-12T20:22:24.663Z,29.50
2022-08-12T20:25:07.273Z,29.50
2022-08-12T20:28:04.348Z,29.40
2022-08-12T20:30:37.907Z,29.40
2022-08-12T20:33:19.143Z,29.40
2022-08-12T20:36:06.483Z,29.30
2022-08-12T20:38:51.691Z,29.20
2022-08-12T20:41:21.945Z,29.10
2022-08-12T20:43:57.523Z,29.10
2022-08-12T20:46:29.498Z,29.00
2022-08-12T20:48:57.619Z,29.00
2022-08-12T20:51:40.463Z,28.90
2022-08-12T20:54:08.791Z,28.90
2022-08-12T20:56:37.648Z,28.80
2022-08-12T20:59:19.853Z,28.80
2022-08-12T21:01:53.938Z,28.60
2022-08-12T21:04:39.968Z,28.50
2022-08-12T21:07:14.292Z,28.40
2022-08-12T21:09:47.596Z,28.30
2022-08-12T21:12:27.653Z,28.20
2022-08-12T21:15:23.516Z,28.20
2022-08-12T21:18:08.932Z,28.10
2022-08-12T21:20:44.328Z,28.10
2022-08-12T21:23:11.671Z,28.00
2022-08-12T21:25:45.151Z,28.00
2022-08-12T21:28:14.800Z,27.90
2022-08-12T21:30:54.792Z,27.90
2022-08-12T21:34:07.886Z,27.90
2022-08-12T21:36:34.221Z,27.80
2022-08-12T21:39:18.219Z,27.80
2022-08-12T21:41:50.979Z,27.80
2022-08-12T21:44:24.454Z,27.70
2022-08-12T21:47:19.761Z,27.70
2022-08-12T21:49:53.955Z,27.70
2022-08-12T21:52:33.917Z,27.70
2022-08-12T21:55:08.303Z,27.70
2022-08-12T21:57:53.677Z,27.60
2022-08-12T22:00:31.733Z,27.60
2022-08-12T22:04:01.310Z,27.60
2022-08-12T22:06:25.980Z,27.50
2022-08-12T22:09:04.389Z,27.50
2022-08-12T22:11:41.847Z,27.50
2022-08-12T22:14:10.329Z,27.40
2022-08-12T22:16:51.553Z,27.40
2022-08-12T22:19:22.983Z,27.40
2022-08-12T22:21:53.874Z,27.30
2022-08-12T22:24:27.131Z,27.30
2022-08-12T22:26:59.420Z,27.30
2022-08-12T22:29:54.213Z,27.20
2022-08-12T22:32:21.321Z,27.20
2022-08-12T22:35:22.308Z,27.20
2022-08-12T22:37:53.660Z,27.20
2022-08-12T22:40:22.941Z,27.20
2022-08-12T22:43:15.759Z,27.10
2022-08-12T22:46:01.615Z,27.10
2022-08-12T22:48:28.612Z,27.10
2022-08-12T22:50:59.240Z,27.10
2022-08-12T22:53:35.944Z,27.10
2022-08-12T22:56:07.024Z,27.00
2022-08-12T22:58:40.575Z,27.00
2022-08-12T23:01:13.780Z,27.00
2022-08-12T23:04:00.271Z,27.00
2022-08-12T23:06:29.992Z,26.90
2022-08-12T23:08:57.108Z,27.00
2022-08-12T23:11:25.463Z,26.90
2022-08-12T23:14:04.234Z,26.90
2022-08-12T23:16:33.964Z,26.90
2022-08-12T23:19:17.886Z,26.90
2022-08-12T23:22:06.192Z,26.80
2022-08-12T23:24:53.664Z,26.80
2022-08-12T23:27:50.651Z,26.70
2022-08-12T23:30:32.215Z,26.70
2022-08-12T23:33:13.022Z,26.70
2022-08-12T23:36:02.477Z,26.70
2022-08-12T23:38:32.990Z,26.70
2022-08-12T23:41:02.125Z,26.60
2022-08-12T23:43:40.153Z,26.60
2022-08-12T23:46:12.356Z,26.60
2022-08-12T23:48:47.694Z,26.60
2022-08-12T23:51:22.241Z,26.60
2022-08-12T23:53:54.851Z,26.50
2022-08-12T23:56:24.182Z,26.50
2022-08-12T23:58:55.006Z,26.50
